createdAt,value
2018-12-14T00:00:11.811Z,1.80
2018-12-14T00:02:39.986Z,1.80
2018-12-14T00:05:08.196Z,1.90
2018-12-14T00:07:36.379Z,1.80
2018-12-14T00:10:05.738Z,1.90
2018-12-14T00:12:33.902Z,1.90
2018-12-14T00:15:02.853Z,1.90
2018-12-14T00:17:31.052Z,1.90
2018-12-14T00:19:59.247Z,1.90
2018-12-14T00:22:27.420Z,1.90
2018-12-14T00:24:55.697Z,1.90
2018-12-14T00:27:24.060Z,2.00
2018-12-14T00:29:52.292Z,2.00
2018-12-14T00:32:20.461Z,2.00
2018-12-14T00:34:48.654Z,2.00
2018-12-14T00:37:16.819Z,2.00
2018-12-14T00:39:45.000Z,2.00
2018-12-14T00:42:13.235Z,2.00
2018-12-14T00:44:42.264Z,2.00
2018-12-14T00:47:10.429Z,2.10
2018-12-14T00:49:38.604Z,2.00
2018-12-14T00:52:06.808Z,2.10
2018-12-14T00:54:34.972Z,2.10
2018-12-14T00:57:03.179Z,2.10
2018-12-14T00:59:31.346Z,2.10
2018-12-14T01:01:59.538Z,2.00
2018-12-14T01:04:28.076Z,2.10
2018-12-14T01:06:56.254Z,2.10
2018-12-14T01:09:24.498Z,2.10
2018-12-14T01:11:58.061Z,2.10
2018-12-14T01:14:22.834Z,2.10
2018-12-14T01:16:51.084Z,2.10
2018-12-14T01:19:19.252Z,2.10
2018-12-14T01:21:47.453Z,2.10
2018-12-14T01:24:15.714Z,2.10
2018-12-14T01:26:43.932Z,2.10
2018-12-14T01:29:12.131Z,2.10
2018-12-14T01:31:40.377Z,2.10
2018-12-14T01:34:08.537Z,2.10
2018-12-14T01:36:36.781Z,2.10
2018-12-14T01:39:05.382Z,2.10
2018-12-14T01:41:33.528Z,2.10
2018-12-14T01:44:01.714Z,2.10
2018-12-14T01:46:29.904Z,2.10
2018-12-14T01:48:58.148Z,2.10
2018-12-14T01:51:26.319Z,2.00
2018-12-14T01:53:54.502Z,2.00
2018-12-14T01:56:22.677Z,2.00
2018-12-14T01:58:50.847Z,2.00
2018-12-14T02:01:19.033Z,2.00
2018-12-14T02:03:47.281Z,2.00
2018-12-14T02:06:15.489Z,2.00
2018-12-14T02:08:43.695Z,1.90
2018-12-14T02:11:11.856Z,1.90
2018-12-14T02:13:40.053Z,2.00
2018-12-14T02:16:08.220Z,2.00
2018-12-14T02:18:36.577Z,1.90
2018-12-14T02:21:04.830Z,1.90
2018-12-14T02:23:32.988Z,1.80
2018-12-14T02:26:01.173Z,1.80
2018-12-14T02:28:29.343Z,1.80
2018-12-14T02:30:57.520Z,1.80
2018-12-14T02:33:25.948Z,1.80
2018-12-14T02:35:54.186Z,1.80
2018-12-14T02:38:22.340Z,1.80
2018-12-14T02:40:50.526Z,1.80
2018-12-14T02:43:18.683Z,1.80
2018-12-14T02:45:46.889Z,1.70
2018-12-14T02:48:15.120Z,1.80
2018-12-14T02:50:43.304Z,1.70
2018-12-14T02:53:11.540Z,1.80
2018-12-14T02:55:39.717Z,1.70
2018-12-14T02:58:07.957Z,1.70
2018-12-14T03:00:36.125Z,1.70
2018-12-14T03:03:04.310Z,1.70
2018-12-14T03:05:32.497Z,1.70
2018-12-14T03:08:00.658Z,1.70
2018-12-14T03:10:28.820Z,1.70
2018-12-14T03:12:56.999Z,1.70
2018-12-14T03:15:25.236Z,1.60
2018-12-14T03:17:53.417Z,1.60
2018-12-14T03:20:21.586Z,1.60
2018-12-14T03:22:49.760Z,1.60
2018-12-14T03:25:17.928Z,1.60
2018-12-14T03:27:46.179Z,1.60
2018-12-14T03:30:14.370Z,1.60
2018-12-14T03:32:42.556Z,1.60
2018-12-14T03:35:10.709Z,1.60
2018-12-14T03:37:38.901Z,1.60
2018-12-14T03:40:07.392Z,1.60
2018-12-14T03:42:35.520Z,1.50
2018-12-14T03:45:03.956Z,1.60
2018-12-14T03:47:32.137Z,1.60
2018-12-14T03:50:00.299Z,1.60
2018-12-14T03:52:31.430Z,1.60
2018-12-14T03:54:59.688Z,1.60
2018-12-14T03:57:27.853Z,1.60
2018-12-14T03:59:56.053Z,1.60
2018-12-14T04:02:24.303Z,1.60
2018-12-14T04:04:52.493Z,1.60
2018-12-14T04:07:20.656Z,1.70
2018-12-14T04:09:48.833Z,1.70
2018-12-14T04:12:17.003Z,1.70
2018-12-14T04:14:45.269Z,1.70
2018-12-14T04:17:13.433Z,1.60
2018-12-14T04:19:41.933Z,1.60
2018-12-14T04:22:10.078Z,1.70
2018-12-14T04:24:38.248Z,1.70
2018-12-14T04:27:06.423Z,1.70
2018-12-14T04:29:34.599Z,1.70
2018-12-14T04:32:02.772Z,1.70
2018-12-14T04:34:30.943Z,1.70
2018-12-14T04:36:59.108Z,1.70
2018-12-14T04:39:27.588Z,1.70
2018-12-14T04:41:55.747Z,1.70
2018-12-14T04:44:23.908Z,1.70
2018-12-14T04:46:52.115Z,1.70
2018-12-14T04:49:20.321Z,1.70
2018-12-14T04:51:48.466Z,1.70
2018-12-14T04:54:16.624Z,1.80
2018-12-14T04:56:44.811Z,1.70
2018-12-14T04:59:13.013Z,1.80
2018-12-14T05:01:41.209Z,1.80
2018-12-14T05:04:09.384Z,1.80
2018-12-14T05:06:37.569Z,1.80
2018-12-14T05:09:05.735Z,1.80
2018-12-14T05:11:33.911Z,1.80
2018-12-14T05:14:02.081Z,1.80
2018-12-14T05:16:30.258Z,1.90
2018-12-14T05:18:58.424Z,1.90
2018-12-14T05:21:26.604Z,2.00
2018-12-14T05:23:54.764Z,2.00
2018-12-14T05:26:23.046Z,2.00
2018-12-14T05:28:51.627Z,1.90
2018-12-14T05:31:19.828Z,1.90
2018-12-14T05:33:47.988Z,2.00
2018-12-14T05:36:16.161Z,1.90
2018-12-14T05:38:44.337Z,1.90
2018-12-14T05:41:12.496Z,2.00
2018-12-14T05:43:40.681Z,2.00
2018-12-14T05:46:08.876Z,2.00
2018-12-14T05:48:37.066Z,2.00
2018-12-14T05:51:05.352Z,2.00
2018-12-14T05:53:33.504Z,2.00
2018-12-14T05:56:01.671Z,2.00
2018-12-14T05:58:29.995Z,2.00
2018-12-14T06:00:58.159Z,2.00
2018-12-14T06:03:26.339Z,2.10
2018-12-14T06:05:54.512Z,2.10
2018-12-14T06:08:22.684Z,2.10
2018-12-14T06:10:50.912Z,2.10
2018-12-14T06:13:19.076Z,2.10
2018-12-14T06:15:47.237Z,2.00
2018-12-14T06:18:15.425Z,2.10
2018-12-14T06:20:43.656Z,2.10
2018-12-14T06:23:11.939Z,2.20
2018-12-14T06:25:40.132Z,2.10
2018-12-14T06:28:08.328Z,2.10
2018-12-14T06:30:36.498Z,2.10
2018-12-14T06:33:04.685Z,2.10
2018-12-14T06:35:32.924Z,2.10
2018-12-14T06:38:01.101Z,2.10
2018-12-14T06:40:29.299Z,2.10
2018-12-14T06:42:57.456Z,2.10
2018-12-14T06:45:25.644Z,2.10
2018-12-14T06:47:53.820Z,2.10
2018-12-14T06:50:22.037Z,2.10
2018-12-14T06:52:50.194Z,2.10
2018-12-14T06:55:18.402Z,2.00
2018-12-14T06:57:46.577Z,2.10
2018-12-14T07:00:14.897Z,2.10
2018-12-14T07:02:43.045Z,2.10
2018-12-14T07:05:11.371Z,2.00
2018-12-14T07:07:39.529Z,2.00
2018-12-14T07:10:07.834Z,2.00
2018-12-14T07:12:35.993Z,2.00
2018-12-14T07:15:04.268Z,2.00
2018-12-14T07:17:32.448Z,2.00
2018-12-14T07:20:00.677Z,2.00
2018-12-14T07:22:28.816Z,2.00
2018-12-14T07:24:56.984Z,2.00
2018-12-14T07:27:25.192Z,2.00
2018-12-14T07:29:53.434Z,2.00
2018-12-14T07:32:21.617Z,2.10
2018-12-14T07:34:49.822Z,2.10
2018-12-14T07:37:17.965Z,2.10
2018-12-14T07:39:46.140Z,2.10
2018-12-14T07:42:14.325Z,2.20
2018-12-14T07:44:42.708Z,2.10
2018-12-14T07:47:11.827Z,2.10
2018-12-14T07:49:40.230Z,2.10
2018-12-14T07:52:08.423Z,2.10
2018-12-14T07:54:36.629Z,2.10
2018-12-14T07:57:04.892Z,2.10
2018-12-14T07:59:33.028Z,2.10
2018-12-14T08:02:01.212Z,2.10
2018-12-14T08:04:29.376Z,2.20
2018-12-14T08:06:57.933Z,2.20
2018-12-14T08:09:26.120Z,2.20
2018-12-14T08:11:54.316Z,2.20
2018-12-14T08:14:22.476Z,2.20
2018-12-14T08:16:50.844Z,2.30
2018-12-14T08:19:19.032Z,2.30
2018-12-14T08:21:47.211Z,2.30
2018-12-14T08:24:15.474Z,2.30
2018-12-14T08:26:43.703Z,2.30
2018-12-14T08:29:11.869Z,2.30
2018-12-14T08:31:40.049Z,2.40
2018-12-14T08:34:08.274Z,2.40
2018-12-14T08:36:36.437Z,2.40
2018-12-14T08:39:05.286Z,2.40
2018-12-14T08:41:33.493Z,2.40
2018-12-14T08:44:01.724Z,2.30
2018-12-14T08:46:30.416Z,2.40
2018-12-14T08:49:00.318Z,2.40
2018-12-14T08:51:28.764Z,2.40
2018-12-14T08:53:56.920Z,2.30
2018-12-14T08:56:25.163Z,2.30
2018-12-14T08:58:53.400Z,2.40
2018-12-14T09:01:21.637Z,2.40
2018-12-14T09:03:49.907Z,2.40
2018-12-14T09:06:18.072Z,2.40
2018-12-14T09:08:46.268Z,2.50
2018-12-14T09:11:14.446Z,2.50
2018-12-14T09:13:47.825Z,2.40
2018-12-14T09:16:12.880Z,2.50
2018-12-14T09:18:41.146Z,2.50
2018-12-14T09:21:09.344Z,2.40
2018-12-14T09:23:37.525Z,2.50
2018-12-14T09:26:05.718Z,2.50
2018-12-14T09:28:33.887Z,2.60
2018-12-14T09:31:02.152Z,2.60
2018-12-14T09:33:30.339Z,2.60
2018-12-14T09:35:58.508Z,2.70
2018-12-14T09:38:26.701Z,2.70
2018-12-14T09:40:54.958Z,2.70
2018-12-14T09:43:23.212Z,2.70
2018-12-14T09:45:51.479Z,2.70
2018-12-14T09:48:19.694Z,2.80
2018-12-14T09:50:47.857Z,2.90
2018-12-14T09:53:16.150Z,2.80
2018-12-14T09:55:44.284Z,2.80
2018-12-14T09:58:12.473Z,2.90
2018-12-14T10:00:40.630Z,2.90
2018-12-14T10:03:08.808Z,2.90
2018-12-14T10:05:36.982Z,2.90
2018-12-14T10:08:05.231Z,2.90
2018-12-14T10:10:33.460Z,2.80
2018-12-14T10:13:01.676Z,2.80
2018-12-14T10:15:29.829Z,2.90
2018-12-14T10:17:58.015Z,2.80
2018-12-14T10:20:26.279Z,2.90
2018-12-14T10:22:54.696Z,2.90
2018-12-14T10:25:22.947Z,2.90
2018-12-14T10:27:51.130Z,2.90
2018-12-14T10:30:19.292Z,2.80
2018-12-14T10:32:47.469Z,2.80
2018-12-14T10:35:15.707Z,2.90
2018-12-14T10:37:43.854Z,2.80
2018-12-14T10:40:12.054Z,2.90
2018-12-14T10:42:40.203Z,2.90
2018-12-14T10:45:09.277Z,2.80
2018-12-14T10:47:37.424Z,2.80
2018-12-14T10:50:06.159Z,2.80
2018-12-14T10:52:34.316Z,2.90
2018-12-14T10:55:03.487Z,2.90
2018-12-14T10:57:31.653Z,3.00
2018-12-14T10:59:59.901Z,3.10
2018-12-14T11:02:28.075Z,3.10
2018-12-14T11:04:56.257Z,3.10
2018-12-14T11:07:24.433Z,3.10
2018-12-14T11:09:52.613Z,3.10
2018-12-14T11:12:20.791Z,3.10
2018-12-14T11:14:49.073Z,3.20
2018-12-14T11:17:17.247Z,3.20
2018-12-14T11:19:45.437Z,3.20
2018-12-14T11:22:14.147Z,3.20
2018-12-14T11:24:42.326Z,3.20
2018-12-14T11:27:10.513Z,3.20
2018-12-14T11:29:38.674Z,3.20
2018-12-14T11:32:06.863Z,3.20
2018-12-14T11:34:35.019Z,3.10
2018-12-14T11:37:03.215Z,3.20
2018-12-14T11:39:31.410Z,3.20
2018-12-14T11:41:59.612Z,3.10
2018-12-14T11:44:27.779Z,3.20
2018-12-14T11:46:56.301Z,3.20
2018-12-14T11:49:24.460Z,3.20
2018-12-14T11:51:52.824Z,3.30
2018-12-14T11:54:20.986Z,3.30
2018-12-14T11:56:49.252Z,3.20
2018-12-14T11:59:17.445Z,3.20
2018-12-14T12:01:45.906Z,3.20
2018-12-14T12:04:14.062Z,3.20
2018-12-14T12:06:42.285Z,3.30
2018-12-14T12:09:10.768Z,3.30
2018-12-14T12:11:38.984Z,3.30
2018-12-14T12:14:07.259Z,3.30
2018-12-14T12:16:35.417Z,3.40
2018-12-14T12:19:03.588Z,3.40
2018-12-14T12:21:31.765Z,3.30
2018-12-14T12:23:59.954Z,3.30
2018-12-14T12:26:29.181Z,3.40
2018-12-14T12:28:57.396Z,3.30
2018-12-14T12:31:25.552Z,3.40
2018-12-14T12:33:53.740Z,3.30
2018-12-14T12:36:21.918Z,3.30
2018-12-14T12:38:50.122Z,3.30
2018-12-14T12:41:18.276Z,3.40
2018-12-14T12:43:47.789Z,3.40
2018-12-14T12:46:16.503Z,3.50
2018-12-14T12:48:44.772Z,3.40
2018-12-14T12:51:12.941Z,3.50
2018-12-14T12:53:41.104Z,3.40
2018-12-14T12:56:09.286Z,3.40
2018-12-14T12:58:37.440Z,3.40
2018-12-14T13:01:05.632Z,3.30
2018-12-14T13:03:34.077Z,3.30
2018-12-14T13:06:02.264Z,3.30
2018-12-14T13:08:30.440Z,3.30
2018-12-14T13:10:58.633Z,3.30
2018-12-14T13:13:26.800Z,3.30
2018-12-14T13:15:55.178Z,3.30
2018-12-14T13:18:23.351Z,3.30
2018-12-14T13:20:51.533Z,3.40
2018-12-14T13:23:19.799Z,3.40
2018-12-14T13:25:47.956Z,3.50
2018-12-14T13:28:18.081Z,3.60
2018-12-14T13:30:46.371Z,3.70
2018-12-14T13:33:14.531Z,3.80
2018-12-14T13:35:42.880Z,3.90
2018-12-14T13:38:11.068Z,3.90
2018-12-14T13:40:39.264Z,4.00
2018-12-14T13:43:07.463Z,4.10
2018-12-14T13:45:35.625Z,4.00
2018-12-14T13:48:03.872Z,4.10
2018-12-14T13:50:32.116Z,4.10
2018-12-14T13:53:00.594Z,4.10
2018-12-14T13:55:28.765Z,4.10
2018-12-14T13:57:56.957Z,4.20
2018-12-14T14:00:25.191Z,4.20
2018-12-14T14:02:53.360Z,4.20
2018-12-14T14:05:21.536Z,4.20
2018-12-14T14:07:49.816Z,4.30
2018-12-14T14:10:17.976Z,4.20
2018-12-14T14:12:46.164Z,4.30
2018-12-14T14:15:20.650Z,4.30
2018-12-14T14:17:44.521Z,4.20
2018-12-14T14:20:12.840Z,4.10
2018-12-14T14:22:41.013Z,4.10
2018-12-14T14:25:09.202Z,3.90
2018-12-14T14:27:37.391Z,3.70
2018-12-14T14:30:07.090Z,3.60
2018-12-14T14:32:35.240Z,3.50
2018-12-14T14:35:04.140Z,3.40
2018-12-14T14:37:32.312Z,3.30
2018-12-14T14:40:00.509Z,3.20
2018-12-14T14:42:28.686Z,3.20
2018-12-14T14:44:59.742Z,3.10
2018-12-14T14:47:27.050Z,3.10
2018-12-14T14:49:55.228Z,3.10
2018-12-14T14:52:23.392Z,3.00
2018-12-14T14:54:51.576Z,3.00
2018-12-14T14:57:19.836Z,2.90
2018-12-14T14:59:48.175Z,2.90
2018-12-14T15:02:16.446Z,2.90
2018-12-14T15:04:44.781Z,2.90
2018-12-14T15:07:13.013Z,2.90
2018-12-14T15:09:41.266Z,2.90
2018-12-14T15:12:09.408Z,2.80
2018-12-14T15:14:37.693Z,2.80
2018-12-14T15:17:05.865Z,2.80
2018-12-14T15:19:34.030Z,2.80
2018-12-14T15:22:04.748Z,2.70
2018-12-14T15:24:38.410Z,2.80
2018-12-14T15:27:08.713Z,2.70
2018-12-14T15:29:36.898Z,2.80
2018-12-14T15:32:05.196Z,2.80
2018-12-14T15:34:33.409Z,2.80
2018-12-14T15:37:01.618Z,2.80
2018-12-14T15:39:29.782Z,2.80
2018-12-14T15:41:57.983Z,2.70
2018-12-14T15:44:26.153Z,2.70
2018-12-14T15:46:55.365Z,2.80
2018-12-14T15:51:58.116Z,2.70
2018-12-14T15:54:26.282Z,2.70
2018-12-14T15:56:54.512Z,2.60
2018-12-14T15:59:22.788Z,2.70
2018-12-14T16:01:50.984Z,2.60
2018-12-14T16:04:19.144Z,2.60
2018-12-14T16:06:47.331Z,2.60
2018-12-14T16:09:15.599Z,2.60
2018-12-14T16:11:43.760Z,2.50
2018-12-14T16:14:11.967Z,2.60
2018-12-14T16:16:40.201Z,2.50
2018-12-14T16:19:08.410Z,2.60
2018-12-14T16:21:36.577Z,2.50
2018-12-14T16:24:04.772Z,2.60
2018-12-14T16:26:33.020Z,2.60
2018-12-14T16:29:01.512Z,2.60
2018-12-14T16:31:29.682Z,2.50
2018-12-14T16:33:57.861Z,2.60
2018-12-14T16:36:26.029Z,2.60
2018-12-14T16:38:54.268Z,2.60
2018-12-14T16:41:22.437Z,2.60
2018-12-14T16:43:50.620Z,2.60
2018-12-14T16:46:18.794Z,2.60
2018-12-14T16:48:46.980Z,2.60
2018-12-14T16:51:15.152Z,2.60
2018-12-14T16:53:43.375Z,2.60
2018-12-14T16:56:11.560Z,2.60
2018-12-14T16:58:39.728Z,2.60
2018-12-14T17:01:07.947Z,2.60
2018-12-14T17:03:36.140Z,2.60
2018-12-14T17:06:04.337Z,2.60
2018-12-14T17:08:32.564Z,2.60
2018-12-14T17:11:01.249Z,2.60
2018-12-14T17:13:29.532Z,2.60
2018-12-14T17:15:57.705Z,2.60
2018-12-14T17:18:25.896Z,2.60
2018-12-14T17:20:54.107Z,2.60
2018-12-14T17:23:22.296Z,2.50
2018-12-14T17:25:50.564Z,2.50
2018-12-14T17:28:18.798Z,2.60
2018-12-14T17:30:47.075Z,2.60
2018-12-14T17:33:15.256Z,2.60
2018-12-14T17:35:43.550Z,2.60
2018-12-14T17:38:11.725Z,2.60
2018-12-14T17:40:40.069Z,2.60
2018-12-14T17:43:08.237Z,2.60
2018-12-14T17:45:39.765Z,2.60
2018-12-14T17:48:06.642Z,2.60
2018-12-14T17:50:34.822Z,2.60
2018-12-14T17:53:03.044Z,2.60
2018-12-14T17:55:31.232Z,2.60
2018-12-14T17:57:59.406Z,2.60
2018-12-14T18:00:27.571Z,2.60
2018-12-14T18:02:55.745Z,2.70
2018-12-14T18:05:23.979Z,2.70
2018-12-14T18:07:52.136Z,2.70
2018-12-14T18:10:20.326Z,2.70
2018-12-14T18:12:48.516Z,2.70
2018-12-14T18:15:16.689Z,2.70
2018-12-14T18:17:44.880Z,2.70
2018-12-14T18:20:13.057Z,2.80
2018-12-14T18:22:41.359Z,2.80
2018-12-14T18:25:09.529Z,2.80
2018-12-14T18:27:37.728Z,2.90
2018-12-14T18:30:06.511Z,2.90
2018-12-14T18:32:34.665Z,2.90
2018-12-14T18:35:03.235Z,2.90
2018-12-14T18:37:31.397Z,2.80
2018-12-14T18:39:59.591Z,2.80
2018-12-14T18:42:27.760Z,2.80
2018-12-14T18:44:55.948Z,2.80
2018-12-14T18:47:24.129Z,2.80
2018-12-14T18:49:52.646Z,2.80
2018-12-14T18:52:20.844Z,2.80
2018-12-14T18:54:49.049Z,2.80
2018-12-14T18:57:17.240Z,2.70
2018-12-14T18:59:45.814Z,2.80
2018-12-14T19:02:14.084Z,2.80
2018-12-14T19:04:42.363Z,2.70
2018-12-14T19:07:10.551Z,2.80
2018-12-14T19:09:38.713Z,2.70
2018-12-14T19:12:06.953Z,2.80
2018-12-14T19:14:35.197Z,2.80
2018-12-14T19:17:03.380Z,2.70
2018-12-14T19:19:31.625Z,2.70
2018-12-14T19:21:59.812Z,2.70
2018-12-14T19:24:27.964Z,2.70
2018-12-14T19:26:56.201Z,2.70
2018-12-14T19:29:24.469Z,2.70
2018-12-14T19:31:52.697Z,2.70
2018-12-14T19:34:20.874Z,2.70
2018-12-14T19:36:49.100Z,2.70
2018-12-14T19:39:17.293Z,2.70
2018-12-14T19:41:45.458Z,2.60
2018-12-14T19:44:13.678Z,2.60
2018-12-14T19:46:41.872Z,2.60
2018-12-14T19:49:10.319Z,2.60
2018-12-14T19:51:38.582Z,2.60
2018-12-14T19:54:06.939Z,2.60
2018-12-14T19:56:35.116Z,2.60
2018-12-14T19:59:03.417Z,2.60
2018-12-14T20:01:31.942Z,2.60
2018-12-14T20:04:00.234Z,2.60
2018-12-14T20:06:28.686Z,2.60
2018-12-14T20:08:56.938Z,2.60
2018-12-14T20:11:25.233Z,2.60
2018-12-14T20:13:53.513Z,2.60
2018-12-14T20:16:21.700Z,2.60
2018-12-14T20:18:49.973Z,2.60
2018-12-14T20:21:18.155Z,2.50
2018-12-14T20:23:46.366Z,2.50
2018-12-14T20:26:14.557Z,2.50
2018-12-14T20:28:42.822Z,2.50
2018-12-14T20:31:11.016Z,2.50
2018-12-14T20:33:39.229Z,2.50
2018-12-14T20:36:07.468Z,2.50
2018-12-14T20:38:35.683Z,2.50
2018-12-14T20:41:03.933Z,2.50
2018-12-14T20:43:32.297Z,2.50
2018-12-14T20:46:00.545Z,2.60
2018-12-14T20:48:28.913Z,2.60
2018-12-14T20:50:57.246Z,2.60
2018-12-14T20:53:25.404Z,2.60
2018-12-14T20:55:53.623Z,2.60
2018-12-14T20:58:21.805Z,2.60
2018-12-14T21:00:49.997Z,2.60
2018-12-14T21:03:18.181Z,2.50
2018-12-14T21:05:46.424Z,2.50
2018-12-14T21:08:14.617Z,2.50
2018-12-14T21:10:42.805Z,2.50
2018-12-14T21:13:10.997Z,2.50
2018-12-14T21:15:39.173Z,2.40
2018-12-14T21:18:07.379Z,2.50
2018-12-14T21:20:35.627Z,2.50
2018-12-14T21:23:03.813Z,2.50
2018-12-14T21:25:31.987Z,2.50
2018-12-14T21:28:00.205Z,2.50
2018-12-14T21:30:28.435Z,2.50
2018-12-14T21:32:56.598Z,2.50
2018-12-14T21:35:24.791Z,2.50
2018-12-14T21:37:53.069Z,2.50
2018-12-14T21:40:21.246Z,2.50
2018-12-14T21:42:49.432Z,2.50
2018-12-14T21:45:17.744Z,2.50
2018-12-14T21:47:45.938Z,2.50
2018-12-14T21:50:14.109Z,2.40
2018-12-14T21:52:42.296Z,2.40
2018-12-14T21:55:10.493Z,2.40
2018-12-14T21:57:38.730Z,2.40
2018-12-14T22:00:09.506Z,2.40
2018-12-14T22:02:37.743Z,2.30
2018-12-14T22:05:06.924Z,2.30
2018-12-14T22:07:35.310Z,2.40
2018-12-14T22:10:05.377Z,2.40
2018-12-14T22:12:33.581Z,2.40
2018-12-14T22:15:01.853Z,2.30
2018-12-14T22:17:30.042Z,2.30
2018-12-14T22:19:58.224Z,2.30
2018-12-14T22:22:26.500Z,2.30
2018-12-14T22:24:54.673Z,2.30
2018-12-14T22:27:22.838Z,2.30
2018-12-14T22:29:51.024Z,2.20
2018-12-14T22:32:19.231Z,2.20
2018-12-14T22:34:47.716Z,2.10
2018-12-14T22:37:15.883Z,2.10
2018-12-14T22:39:44.080Z,2.10
2018-12-14T22:42:12.261Z,2.10
2018-12-14T22:44:40.504Z,2.10
2018-12-14T22:47:08.657Z,2.10
2018-12-14T22:49:37.265Z,2.00
2018-12-14T22:52:05.402Z,2.10
2018-12-14T22:54:33.700Z,2.10
2018-12-14T22:57:02.109Z,2.10
2018-12-14T22:59:30.299Z,2.10
2018-12-14T23:01:58.485Z,2.10
2018-12-14T23:04:26.696Z,2.10
2018-12-14T23:06:54.856Z,2.10
2018-12-14T23:09:23.071Z,2.10
2018-12-14T23:11:51.255Z,2.10
2018-12-14T23:14:19.409Z,2.10
2018-12-14T23:16:52.257Z,2.10
2018-12-14T23:19:17.779Z,2.00
2018-12-14T23:21:45.968Z,2.00
2018-12-14T23:24:14.145Z,2.00
2018-12-14T23:26:42.421Z,2.00
2018-12-14T23:29:10.585Z,2.10
2018-12-14T23:31:38.787Z,2.10
2018-12-14T23:34:06.967Z,2.00
2018-12-14T23:36:35.150Z,2.10
2018-12-14T23:39:04.592Z,2.10
2018-12-14T23:41:32.764Z,2.00
2018-12-14T23:44:00.945Z,2.10
2018-12-14T23:46:30.754Z,2.10
2018-12-14T23:48:58.914Z,2.00
2018-12-14T23:51:27.113Z,2.00
2018-12-14T23:53:55.349Z,2.00
2018-12-14T23:56:23.559Z,2.10
2018-12-14T23:58:51.734Z,2.00
